sensor_id;sensor_type;location;lat;lon;timestamp;temperature;humidity
5150;DHT22;2593;52.466;13.436;2023-04-03T00:00:56;1.50;65.90
5150;DHT22;2593;52.466;13.436;2023-04-03T00:03:22;1.40;70.10
5150;DHT22;2593;52.466;13.436;2023-04-03T00:05:48;1.40;79.70
5150;DHT22;2593;52.466;13.436;2023-04-03T00:08:14;1.40;93.70
5150;DHT22;2593;52.466;13.436;2023-04-03T00:10:39;1.40;98.10
5150;DHT22;2593;52.466;13.436;2023-04-03T00:13:06;1.40;97.80
5150;DHT22;2593;52.466;13.436;2023-04-03T00:15:32;1.40;96.30
5150;DHT22;2593;52.466;13.436;2023-04-03T00:17:58;1.30;99.90
5150;DHT22;2593;52.466;13.436;2023-04-03T00:20:23;1.30;99.90
5150;DHT22;2593;52.466;13.436;2023-04-03T00:22:49;1.30;99.90
5150;DHT22;2593;52.466;13.436;2023-04-03T00:25:15;1.30;99.90
5150;DHT22;2593;52.466;13.436;2023-04-03T00:27:40;1.30;99.90
5150;DHT22;2593;52.466;13.436;2023-04-03T00:30:08;1.30;98.60
5150;DHT22;2593;52.466;13.436;2023-04-03T00:32:35;1.30;99.90
5150;DHT22;2593;52.466;13.436;2023-04-03T00:35:01;1.30;99.90
5150;DHT22;2593;52.466;13.436;2023-04-03T00:37:26;1.20;96.30
5150;DHT22;2593;52.466;13.436;2023-04-03T00:39:52;1.20;91.60
5150;DHT22;2593;52.466;13.436;2023-04-03T00:42:17;1.20;94.40
5150;DHT22;2593;52.466;13.436;2023-04-03T00:47:12;1.20;73.50
5150;DHT22;2593;52.466;13.436;2023-04-03T00:49:38;1.20;56.90
5150;DHT22;2593;52.466;13.436;2023-04-03T00:52:11;1.20;56.70
5150;DHT22;2593;52.466;13.436;2023-04-03T00:54:41;1.20;61.40
5150;DHT22;2593;52.466;13.436;2023-04-03T00:57:09;1.20;52.10
5150;DHT22;2593;52.466;13.436;2023-04-03T00:59:39;1.20;47.40
5150;DHT22;2593;52.466;13.436;2023-04-03T01:02:06;1.20;52.30
5150;DHT22;2593;52.466;13.436;2023-04-03T01:07:02;1.10;56.20
5150;DHT22;2593;52.466;13.436;2023-04-03T01:09:30;1.10;61.10
5150;DHT22;2593;52.466;13.436;2023-04-03T01:14:43;1.10;41.20
5150;DHT22;2593;52.466;13.436;2023-04-03T01:17:28;1.10;41.90
5150;DHT22;2593;52.466;13.436;2023-04-03T01:25:36;1.10;52.20
5150;DHT22;2593;52.466;13.436;2023-04-03T01:28:03;1.10;56.30
5150;DHT22;2593;52.466;13.436;2023-04-03T01:30:36;1.10;46.80
5150;DHT22;2593;52.466;13.436;2023-04-03T01:33:05;1.10;53.60
5150;DHT22;2593;52.466;13.436;2023-04-03T01:35:30;1.10;61.00
5150;DHT22;2593;52.466;13.436;2023-04-03T01:37:56;1.10;59.10
5150;DHT22;2593;52.466;13.436;2023-04-03T01:40:21;1.10;56.10
5150;DHT22;2593;52.466;13.436;2023-04-03T01:42:47;1.10;55.40
5150;DHT22;2593;52.466;13.436;2023-04-03T01:45:13;1.10;55.50
5150;DHT22;2593;52.466;13.436;2023-04-03T01:47:38;1.00;61.30
5150;DHT22;2593;52.466;13.436;2023-04-03T01:50:04;1.00;58.40
5150;DHT22;2593;52.466;13.436;2023-04-03T01:52:30;1.00;73.80
5150;DHT22;2593;52.466;13.436;2023-04-03T01:54:56;1.00;63.80
5150;DHT22;2593;52.466;13.436;2023-04-03T01:57:21;1.00;65.60
5150;DHT22;2593;52.466;13.436;2023-04-03T01:59:47;1.00;71.30
5150;DHT22;2593;52.466;13.436;2023-04-03T02:02:13;1.00;75.50
5150;DHT22;2593;52.466;13.436;2023-04-03T02:04:40;1.00;83.10
5150;DHT22;2593;52.466;13.436;2023-04-03T02:07:06;1.00;88.10
5150;DHT22;2593;52.466;13.436;2023-04-03T02:09:31;0.90;93.70
5150;DHT22;2593;52.466;13.436;2023-04-03T02:11:57;1.00;97.00
5150;DHT22;2593;52.466;13.436;2023-04-03T02:14:23;1.00;91.30
5150;DHT22;2593;52.466;13.436;2023-04-03T02:16:49;1.00;93.50
5150;DHT22;2593;52.466;13.436;2023-04-03T02:19:15;1.00;98.70
5150;DHT22;2593;52.466;13.436;2023-04-03T02:21:41;0.90;99.50
5150;DHT22;2593;52.466;13.436;2023-04-03T02:24:06;0.90;99.90
5150;DHT22;2593;52.466;13.436;2023-04-03T02:26:32;0.90;99.90
5150;DHT22;2593;52.466;13.436;2023-04-03T02:28:58;1.00;99.90
5150;DHT22;2593;52.466;13.436;2023-04-03T02:31:23;0.90;99.90
5150;DHT22;2593;52.466;13.436;2023-04-03T02:33:49;0.90;99.90
5150;DHT22;2593;52.466;13.436;2023-04-03T02:36:15;0.90;99.90
5150;DHT22;2593;52.466;13.436;2023-04-03T02:38:41;0.90;99.90
5150;DHT22;2593;52.466;13.436;2023-04-03T02:41:09;0.90;99.90
5150;DHT22;2593;52.466;13.436;2023-04-03T02:43:36;0.80;99.90
5150;DHT22;2593;52.466;13.436;2023-04-03T02:46:02;0.80;99.90
5150;DHT22;2593;52.466;13.436;2023-04-03T02:48:28;0.80;99.90
5150;DHT22;2593;52.466;13.436;2023-04-03T02:50:54;0.80;99.90
5150;DHT22;2593;52.466;13.436;2023-04-03T02:53:20;0.70;99.90
5150;DHT22;2593;52.466;13.436;2023-04-03T02:55:45;0.80;99.90
5150;DHT22;2593;52.466;13.436;2023-04-03T02:58:11;0.90;99.90
5150;DHT22;2593;52.466;13.436;2023-04-03T03:00:37;0.90;99.90
5150;DHT22;2593;52.466;13.436;2023-04-03T03:03:04;0.80;99.90
5150;DHT22;2593;52.466;13.436;2023-04-03T03:05:30;0.80;99.90
5150;DHT22;2593;52.466;13.436;2023-04-03T03:07:55;0.80;99.90
5150;DHT22;2593;52.466;13.436;2023-04-03T03:10:22;0.70;99.90
5150;DHT22;2593;52.466;13.436;2023-04-03T03:12:48;0.70;99.90
5150;DHT22;2593;52.466;13.436;2023-04-03T03:15:14;0.70;99.90
5150;DHT22;2593;52.466;13.436;2023-04-03T03:17:41;0.70;99.90
5150;DHT22;2593;52.466;13.436;2023-04-03T03:20:07;0.70;99.90
5150;DHT22;2593;52.466;13.436;2023-04-03T03:22:35;0.70;99.90
5150;DHT22;2593;52.466;13.436;2023-04-03T03:25:02;0.60;99.90
5150;DHT22;2593;52.466;13.436;2023-04-03T03:27:28;0.60;99.90
5150;DHT22;2593;52.466;13.436;2023-04-03T03:29:54;0.70;99.90
5150;DHT22;2593;52.466;13.436;2023-04-03T03:32:19;0.60;99.90
5150;DHT22;2593;52.466;13.436;2023-04-03T03:34:45;0.70;99.90
5150;DHT22;2593;52.466;13.436;2023-04-03T03:37:11;0.60;99.90
5150;DHT22;2593;52.466;13.436;2023-04-03T03:39:37;0.60;99.90
5150;DHT22;2593;52.466;13.436;2023-04-03T03:42:02;0.60;99.90
5150;DHT22;2593;52.466;13.436;2023-04-03T03:44:28;0.50;99.90
5150;DHT22;2593;52.466;13.436;2023-04-03T03:46:54;0.50;99.90
5150;DHT22;2593;52.466;13.436;2023-04-03T03:49:20;0.50;99.90
5150;DHT22;2593;52.466;13.436;2023-04-03T03:51:46;0.40;99.90
5150;DHT22;2593;52.466;13.436;2023-04-03T03:54:12;0.50;99.90
5150;DHT22;2593;52.466;13.436;2023-04-03T03:56:38;0.40;99.90
5150;DHT22;2593;52.466;13.436;2023-04-03T03:59:03;0.40;99.90
5150;DHT22;2593;52.466;13.436;2023-04-03T04:01:29;0.40;99.90
5150;DHT22;2593;52.466;13.436;2023-04-03T04:03:55;0.40;99.90
5150;DHT22;2593;52.466;13.436;2023-04-03T04:06:21;0.40;99.90
5150;DHT22;2593;52.466;13.436;2023-04-03T04:08:47;0.40;99.90
5150;DHT22;2593;52.466;13.436;2023-04-03T04:11:12;0.40;99.90
5150;DHT22;2593;52.466;13.436;2023-04-03T04:13:38;0.30;99.90
5150;DHT22;2593;52.466;13.436;2023-04-03T04:16:04;0.30;99.90
5150;DHT22;2593;52.466;13.436;2023-04-03T04:18:30;0.30;99.90
5150;DHT22;2593;52.466;13.436;2023-04-03T04:20:56;0.30;99.90
5150;DHT22;2593;52.466;13.436;2023-04-03T04:23:21;0.30;99.90
5150;DHT22;2593;52.466;13.436;2023-04-03T04:25:48;0.30;99.90
5150;DHT22;2593;52.466;13.436;2023-04-03T04:28:15;0.30;99.90
5150;DHT22;2593;52.466;13.436;2023-04-03T04:30:40;0.40;99.90
5150;DHT22;2593;52.466;13.436;2023-04-03T04:33:07;0.30;99.90
5150;DHT22;2593;52.466;13.436;2023-04-03T04:35:33;0.30;99.90
5150;DHT22;2593;52.466;13.436;2023-04-03T04:37:58;0.20;99.90
5150;DHT22;2593;52.466;13.436;2023-04-03T04:40:25;0.20;1.00
5150;DHT22;2593;52.466;13.436;2023-04-03T04:42:51;0.30;1.00
5150;DHT22;2593;52.466;13.436;2023-04-03T04:45:17;0.30;1.00
5150;DHT22;2593;52.466;13.436;2023-04-03T04:47:42;0.30;99.90
5150;DHT22;2593;52.466;13.436;2023-04-03T04:50:09;0.20;1.00
5150;DHT22;2593;52.466;13.436;2023-04-03T04:52:35;0.30;1.00
5150;DHT22;2593;52.466;13.436;2023-04-03T04:55:00;0.30;1.00
5150;DHT22;2593;52.466;13.436;2023-04-03T04:57:26;0.30;1.00
5150;DHT22;2593;52.466;13.436;2023-04-03T04:59:52;0.30;1.00
5150;DHT22;2593;52.466;13.436;2023-04-03T05:02:17;0.30;1.00
5150;DHT22;2593;52.466;13.436;2023-04-03T05:04:44;0.30;1.00
5150;DHT22;2593;52.466;13.436;2023-04-03T05:07:10;0.30;1.00
5150;DHT22;2593;52.466;13.436;2023-04-03T05:09:35;0.30;1.00
5150;DHT22;2593;52.466;13.436;2023-04-03T05:12:01;0.30;1.00
5150;DHT22;2593;52.466;13.436;2023-04-03T05:14:28;0.30;1.00
5150;DHT22;2593;52.466;13.436;2023-04-03T05:16:54;0.40;1.00
5150;DHT22;2593;52.466;13.436;2023-04-03T05:19:20;0.40;1.00
5150;DHT22;2593;52.466;13.436;2023-04-03T05:21:47;0.40;1.00
5150;DHT22;2593;52.466;13.436;2023-04-03T05:24:13;0.50;1.00
5150;DHT22;2593;52.466;13.436;2023-04-03T05:26:39;0.50;1.00
5150;DHT22;2593;52.466;13.436;2023-04-03T05:29:04;0.50;1.00
5150;DHT22;2593;52.466;13.436;2023-04-03T05:31:30;0.60;99.90
5150;DHT22;2593;52.466;13.436;2023-04-03T05:33:56;0.60;99.90
5150;DHT22;2593;52.466;13.436;2023-04-03T05:36:22;0.60;99.90
5150;DHT22;2593;52.466;13.436;2023-04-03T05:38:48;0.60;99.90
5150;DHT22;2593;52.466;13.436;2023-04-03T05:41:15;0.60;99.90
5150;DHT22;2593;52.466;13.436;2023-04-03T05:43:41;0.70;99.90
5150;DHT22;2593;52.466;13.436;2023-04-03T05:46:11;0.80;99.90
5150;DHT22;2593;52.466;13.436;2023-04-03T05:48:37;0.80;99.90
5150;DHT22;2593;52.466;13.436;2023-04-03T05:51:03;0.80;99.90
5150;DHT22;2593;52.466;13.436;2023-04-03T05:53:31;0.90;99.90
5150;DHT22;2593;52.466;13.436;2023-04-03T05:55:58;1.00;99.90
5150;DHT22;2593;52.466;13.436;2023-04-03T05:58:23;1.00;99.90
5150;DHT22;2593;52.466;13.436;2023-04-03T06:00:49;1.10;99.90
5150;DHT22;2593;52.466;13.436;2023-04-03T06:03:14;1.00;99.90
5150;DHT22;2593;52.466;13.436;2023-04-03T06:05:40;1.10;99.90
5150;DHT22;2593;52.466;13.436;2023-04-03T06:08:07;1.10;99.90
5150;DHT22;2593;52.466;13.436;2023-04-03T06:10:32;1.10;99.90
5150;DHT22;2593;52.466;13.436;2023-04-03T06:12:58;1.10;99.90
5150;DHT22;2593;52.466;13.436;2023-04-03T06:15:23;1.20;99.90
5150;DHT22;2593;52.466;13.436;2023-04-03T06:17:50;1.20;99.90
5150;DHT22;2593;52.466;13.436;2023-04-03T06:20:16;1.20;99.90
5150;DHT22;2593;52.466;13.436;2023-04-03T06:22:41;1.30;99.90
5150;DHT22;2593;52.466;13.436;2023-04-03T06:25:07;1.30;99.90
5150;DHT22;2593;52.466;13.436;2023-04-03T06:27:33;1.40;99.90
5150;DHT22;2593;52.466;13.436;2023-04-03T06:29:59;1.40;99.90
5150;DHT22;2593;52.466;13.436;2023-04-03T06:32:24;1.50;99.90
5150;DHT22;2593;52.466;13.436;2023-04-03T06:34:50;1.60;95.90
5150;DHT22;2593;52.466;13.436;2023-04-03T06:37:21;1.70;83.00
5150;DHT22;2593;52.466;13.436;2023-04-03T06:39:47;1.70;51.60
5150;DHT22;2593;52.466;13.436;2023-04-03T06:42:13;1.80;25.20
5150;DHT22;2593;52.466;13.436;2023-04-03T06:44:38;1.90;1.00
5150;DHT22;2593;52.466;13.436;2023-04-03T06:47:04;2.00;1.00
5150;DHT22;2593;52.466;13.436;2023-04-03T06:49:30;2.20;1.00
5150;DHT22;2593;52.466;13.436;2023-04-03T06:51:57;2.30;1.00
5150;DHT22;2593;52.466;13.436;2023-04-03T06:54:23;2.50;1.00
5150;DHT22;2593;52.466;13.436;2023-04-03T06:56:49;2.50;1.00
5150;DHT22;2593;52.466;13.436;2023-04-03T06:59:15;3.20;1.00
5150;DHT22;2593;52.466;13.436;2023-04-03T07:01:41;4.10;1.00
5150;DHT22;2593;52.466;13.436;2023-04-03T07:04:07;5.40;1.00
5150;DHT22;2593;52.466;13.436;2023-04-03T07:06:34;6.50;1.00
5150;DHT22;2593;52.466;13.436;2023-04-03T07:08:59;7.50;1.00
5150;DHT22;2593;52.466;13.436;2023-04-03T07:11:26;8.20;1.00
5150;DHT22;2593;52.466;13.436;2023-04-03T07:13:52;8.20;1.00
5150;DHT22;2593;52.466;13.436;2023-04-03T07:16:19;8.40;1.00
5150;DHT22;2593;52.466;13.436;2023-04-03T07:18:45;8.10;1.00
5150;DHT22;2593;52.466;13.436;2023-04-03T07:21:11;9.20;1.00
5150;DHT22;2593;52.466;13.436;2023-04-03T07:23:37;10.40;1.00
5150;DHT22;2593;52.466;13.436;2023-04-03T07:26:03;10.90;1.00
5150;DHT22;2593;52.466;13.436;2023-04-03T07:28:29;11.00;1.00
5150;DHT22;2593;52.466;13.436;2023-04-03T07:31:03;10.50;1.00
5150;DHT22;2593;52.466;13.436;2023-04-03T07:33:30;10.70;1.00
5150;DHT22;2593;52.466;13.436;2023-04-03T07:35:56;11.30;1.00
5150;DHT22;2593;52.466;13.436;2023-04-03T07:38:22;11.70;1.00
5150;DHT22;2593;52.466;13.436;2023-04-03T07:40:49;12.60;1.00
5150;DHT22;2593;52.466;13.436;2023-04-03T07:43:16;12.40;1.00
5150;DHT22;2593;52.466;13.436;2023-04-03T07:45:42;11.70;1.00
5150;DHT22;2593;52.466;13.436;2023-04-03T07:48:12;11.60;1.00
5150;DHT22;2593;52.466;13.436;2023-04-03T07:50:40;11.50;1.00
5150;DHT22;2593;52.466;13.436;2023-04-03T07:53:05;11.80;1.00
5150;DHT22;2593;52.466;13.436;2023-04-03T07:55:31;10.20;1.00
5150;DHT22;2593;52.466;13.436;2023-04-03T07:57:57;9.60;1.00
5150;DHT22;2593;52.466;13.436;2023-04-03T08:00:23;8.00;1.00
5150;DHT22;2593;52.466;13.436;2023-04-03T08:02:48;7.80;1.00
5150;DHT22;2593;52.466;13.436;2023-04-03T08:05:18;6.80;1.00
5150;DHT22;2593;52.466;13.436;2023-04-03T08:07:43;6.40;1.00
5150;DHT22;2593;52.466;13.436;2023-04-03T08:10:09;5.90;1.00
5150;DHT22;2593;52.466;13.436;2023-04-03T08:12:35;5.30;1.00
5150;DHT22;2593;52.466;13.436;2023-04-03T08:15:03;5.80;1.00
5150;DHT22;2593;52.466;13.436;2023-04-03T08:17:29;6.70;1.00
5150;DHT22;2593;52.466;13.436;2023-04-03T08:19:54;7.40;1.00
5150;DHT22;2593;52.466;13.436;2023-04-03T08:22:20;6.40;1.00
5150;DHT22;2593;52.466;13.436;2023-04-03T08:24:46;5.60;1.00
5150;DHT22;2593;52.466;13.436;2023-04-03T08:27:12;5.00;1.00
5150;DHT22;2593;52.466;13.436;2023-04-03T08:29:37;5.00;1.00
5150;DHT22;2593;52.466;13.436;2023-04-03T08:32:04;5.40;1.00
5150;DHT22;2593;52.466;13.436;2023-04-03T08:34:30;6.10;1.00
5150;DHT22;2593;52.466;13.436;2023-04-03T08:37:00;5.60;1.00
5150;DHT22;2593;52.466;13.436;2023-04-03T08:39:26;4.90;1.00
5150;DHT22;2593;52.466;13.436;2023-04-03T08:41:52;5.00;1.00
5150;DHT22;2593;52.466;13.436;2023-04-03T08:49:51;5.20;1.00
5150;DHT22;2593;52.466;13.436;2023-04-03T08:52:45;4.60;1.00
5150;DHT22;2593;52.466;13.436;2023-04-03T08:55:23;4.50;1.00
5150;DHT22;2593;52.466;13.436;2023-04-03T08:58:03;4.50;1.00
5150;DHT22;2593;52.466;13.436;2023-04-03T09:00:39;4.60;1.00
5150;DHT22;2593;52.466;13.436;2023-04-03T09:03:15;4.40;1.00
5150;DHT22;2593;52.466;13.436;2023-04-03T09:06:20;4.50;1.00
5150;DHT22;2593;52.466;13.436;2023-04-03T09:08:41;4.40;1.00
5150;DHT22;2593;52.466;13.436;2023-04-03T09:19:20;7.00;1.00
5150;DHT22;2593;52.466;13.436;2023-04-03T09:21:47;7.60;1.00
5150;DHT22;2593;52.466;13.436;2023-04-03T09:24:14;8.30;1.00
5150;DHT22;2593;52.466;13.436;2023-04-03T09:27:05;9.00;1.00
5150;DHT22;2593;52.466;13.436;2023-04-03T09:29:29;9.70;1.00
5150;DHT22;2593;52.466;13.436;2023-04-03T09:32:00;10.60;1.00
5150;DHT22;2593;52.466;13.436;2023-04-03T09:34:35;9.80;1.00
5150;DHT22;2593;52.466;13.436;2023-04-03T09:37:03;9.20;1.00
5150;DHT22;2593;52.466;13.436;2023-04-03T09:39:32;8.90;1.00
5150;DHT22;2593;52.466;13.436;2023-04-03T09:42:03;8.90;1.00
5150;DHT22;2593;52.466;13.436;2023-04-03T09:44:31;9.70;1.00
5150;DHT22;2593;52.466;13.436;2023-04-03T09:46:57;10.50;1.00
5150;DHT22;2593;52.466;13.436;2023-04-03T09:49:23;11.30;1.00
5150;DHT22;2593;52.466;13.436;2023-04-03T09:51:50;10.70;1.00
5150;DHT22;2593;52.466;13.436;2023-04-03T09:54:34;9.70;1.00
5150;DHT22;2593;52.466;13.436;2023-04-03T09:57:11;8.60;1.00
5150;DHT22;2593;52.466;13.436;2023-04-03T09:59:43;9.10;1.00
5150;DHT22;2593;52.466;13.436;2023-04-03T10:02:21;9.00;1.00
5150;DHT22;2593;52.466;13.436;2023-04-03T10:04:46;8.60;1.00
5150;DHT22;2593;52.466;13.436;2023-04-03T10:07:35;8.20;1.00
5150;DHT22;2593;52.466;13.436;2023-04-03T10:12:40;7.10;1.00
5150;DHT22;2593;52.466;13.436;2023-04-03T10:15:15;7.20;1.00
5150;DHT22;2593;52.466;13.436;2023-04-03T10:18:02;8.60;1.00
5150;DHT22;2593;52.466;13.436;2023-04-03T10:20:37;9.10;1.00
5150;DHT22;2593;52.466;13.436;2023-04-03T10:23:45;8.80;1.00
5150;DHT22;2593;52.466;13.436;2023-04-03T10:29:27;7.80;1.00
5150;DHT22;2593;52.466;13.436;2023-04-03T10:34:40;6.70;1.00
5150;DHT22;2593;52.466;13.436;2023-04-03T10:37:24;6.30;1.00
5150;DHT22;2593;52.466;13.436;2023-04-03T10:40:22;6.40;1.00
5150;DHT22;2593;52.466;13.436;2023-04-03T10:42:50;6.40;1.00
5150;DHT22;2593;52.466;13.436;2023-04-03T10:48:33;6.10;1.00
5150;DHT22;2593;52.466;13.436;2023-04-03T10:57:02;5.60;1.00
5150;DHT22;2593;52.466;13.436;2023-04-03T10:59:49;5.60;1.00
5150;DHT22;2593;52.466;13.436;2023-04-03T11:02:34;5.70;1.00
5150;DHT22;2593;52.466;13.436;2023-04-03T11:05:53;6.00;1.00
5150;DHT22;2593;52.466;13.436;2023-04-03T11:07:56;6.00;1.00
5150;DHT22;2593;52.466;13.436;2023-04-03T11:10:42;6.00;1.00
5150;DHT22;2593;52.466;13.436;2023-04-03T11:13:27;5.80;1.00
5150;DHT22;2593;52.466;13.436;2023-04-03T11:15:54;5.70;1.00
5150;DHT22;2593;52.466;13.436;2023-04-03T11:18:28;5.60;1.00
5150;DHT22;2593;52.466;13.436;2023-04-03T11:22:00;5.30;1.00
5150;DHT22;2593;52.466;13.436;2023-04-03T11:24:22;5.40;1.00
5150;DHT22;2593;52.466;13.436;2023-04-03T11:26:50;5.70;1.00
5150;DHT22;2593;52.466;13.436;2023-04-03T11:29:24;5.90;1.00
5150;DHT22;2593;52.466;13.436;2023-04-03T11:32:29;6.10;1.00
5150;DHT22;2593;52.466;13.436;2023-04-03T11:34:59;6.40;1.00
5150;DHT22;2593;52.466;13.436;2023-04-03T11:37:39;6.50;1.00
5150;DHT22;2593;52.466;13.436;2023-04-03T11:40:20;6.50;1.00
5150;DHT22;2593;52.466;13.436;2023-04-03T11:42:49;6.30;1.00
5150;DHT22;2593;52.466;13.436;2023-04-03T11:47:50;5.90;1.00
5150;DHT22;2593;52.466;13.436;2023-04-03T11:50:46;5.80;1.00
5150;DHT22;2593;52.466;13.436;2023-04-03T12:00:59;6.20;1.00
5150;DHT22;2593;52.466;13.436;2023-04-03T12:13:37;6.00;1.00
5150;DHT22;2593;52.466;13.436;2023-04-03T12:16:07;6.00;1.00
5150;DHT22;2593;52.466;13.436;2023-04-03T12:29:20;6.00;1.00
5150;DHT22;2593;52.466;13.436;2023-04-03T12:46:14;5.80;1.00
5150;DHT22;2593;52.466;13.436;2023-04-03T12:51:35;6.10;1.00
5150;DHT22;2593;52.466;13.436;2023-04-03T12:54:26;6.30;1.00
5150;DHT22;2593;52.466;13.436;2023-04-03T12:57:09;6.30;1.00
5150;DHT22;2593;52.466;13.436;2023-04-03T12:59:35;6.00;1.00
5150;DHT22;2593;52.466;13.436;2023-04-03T13:02:02;5.70;1.00
5150;DHT22;2593;52.466;13.436;2023-04-03T13:04:29;5.50;1.00
5150;DHT22;2593;52.466;13.436;2023-04-03T13:06:56;5.60;1.00
5150;DHT22;2593;52.466;13.436;2023-04-03T13:09:27;5.60;1.00
5150;DHT22;2593;52.466;13.436;2023-04-03T13:12:02;5.60;1.00
5150;DHT22;2593;52.466;13.436;2023-04-03T13:14:30;5.90;1.00
5150;DHT22;2593;52.466;13.436;2023-04-03T13:16:59;6.20;1.00
5150;DHT22;2593;52.466;13.436;2023-04-03T13:19:28;6.20;1.00
5150;DHT22;2593;52.466;13.436;2023-04-03T13:22:01;6.40;1.00
5150;DHT22;2593;52.466;13.436;2023-04-03T13:24:29;6.10;1.00
5150;DHT22;2593;52.466;13.436;2023-04-03T13:26:56;6.00;1.00
5150;DHT22;2593;52.466;13.436;2023-04-03T13:29:31;6.00;1.00
5150;DHT22;2593;52.466;13.436;2023-04-03T13:31:58;6.00;1.00
5150;DHT22;2593;52.466;13.436;2023-04-03T13:34:28;6.10;1.00
5150;DHT22;2593;52.466;13.436;2023-04-03T13:36:58;6.20;1.00
5150;DHT22;2593;52.466;13.436;2023-04-03T13:39:28;6.20;1.00
5150;DHT22;2593;52.466;13.436;2023-04-03T13:41:59;6.10;1.00
5150;DHT22;2593;52.466;13.436;2023-04-03T13:44:31;6.10;1.00
5150;DHT22;2593;52.466;13.436;2023-04-03T13:49:41;5.90;1.00
5150;DHT22;2593;52.466;13.436;2023-04-03T13:52:25;5.80;1.00
5150;DHT22;2593;52.466;13.436;2023-04-03T13:54:56;5.70;1.00
5150;DHT22;2593;52.466;13.436;2023-04-03T13:57:22;5.60;1.00
5150;DHT22;2593;52.466;13.436;2023-04-03T13:59:48;5.50;1.00
5150;DHT22;2593;52.466;13.436;2023-04-03T14:02:38;5.50;1.00
5150;DHT22;2593;52.466;13.436;2023-04-03T14:05:05;5.50;1.00
5150;DHT22;2593;52.466;13.436;2023-04-03T14:07:33;5.60;1.00
5150;DHT22;2593;52.466;13.436;2023-04-03T14:09:59;5.60;1.00
5150;DHT22;2593;52.466;13.436;2023-04-03T14:12:33;5.80;1.00
5150;DHT22;2593;52.466;13.436;2023-04-03T14:15:06;5.80;1.00
5150;DHT22;2593;52.466;13.436;2023-04-03T14:17:36;5.80;1.00
5150;DHT22;2593;52.466;13.436;2023-04-03T14:20:02;5.80;1.00
5150;DHT22;2593;52.466;13.436;2023-04-03T14:22:31;6.00;1.00
5150;DHT22;2593;52.466;13.436;2023-04-03T14:24:57;6.20;1.00
5150;DHT22;2593;52.466;13.436;2023-04-03T14:27:26;6.10;1.00
5150;DHT22;2593;52.466;13.436;2023-04-03T14:29:54;5.90;1.00
5150;DHT22;2593;52.466;13.436;2023-04-03T14:32:22;5.70;1.00
5150;DHT22;2593;52.466;13.436;2023-04-03T14:34:49;5.80;1.00
5150;DHT22;2593;52.466;13.436;2023-04-03T14:37:21;5.70;1.00
5150;DHT22;2593;52.466;13.436;2023-04-03T14:39:48;5.60;1.00
5150;DHT22;2593;52.466;13.436;2023-04-03T14:42:21;5.80;1.00
5150;DHT22;2593;52.466;13.436;2023-04-03T14:44:47;5.90;1.00
5150;DHT22;2593;52.466;13.436;2023-04-03T14:47:15;6.00;1.00
5150;DHT22;2593;52.466;13.436;2023-04-03T14:49:42;6.10;1.00
5150;DHT22;2593;52.466;13.436;2023-04-03T14:52:18;6.00;1.00
5150;DHT22;2593;52.466;13.436;2023-04-03T14:54:44;6.00;1.00
5150;DHT22;2593;52.466;13.436;2023-04-03T14:57:12;6.00;1.00
5150;DHT22;2593;52.466;13.436;2023-04-03T14:59:39;5.90;1.00
5150;DHT22;2593;52.466;13.436;2023-04-03T15:04:52;5.90;1.00
5150;DHT22;2593;52.466;13.436;2023-04-03T15:07:18;5.70;1.00
5150;DHT22;2593;52.466;13.436;2023-04-03T15:09:44;5.60;1.00
5150;DHT22;2593;52.466;13.436;2023-04-03T15:12:10;5.70;1.00
5150;DHT22;2593;52.466;13.436;2023-04-03T15:14:36;5.50;1.00
5150;DHT22;2593;52.466;13.436;2023-04-03T15:17:01;5.40;1.00
5150;DHT22;2593;52.466;13.436;2023-04-03T15:19:37;5.30;1.00
5150;DHT22;2593;52.466;13.436;2023-04-03T15:22:03;5.20;1.00
5150;DHT22;2593;52.466;13.436;2023-04-03T15:24:28;5.00;1.00
5150;DHT22;2593;52.466;13.436;2023-04-03T15:26:54;5.20;1.00
5150;DHT22;2593;52.466;13.436;2023-04-03T15:29:20;5.20;1.00
5150;DHT22;2593;52.466;13.436;2023-04-03T15:31:45;5.10;1.00
5150;DHT22;2593;52.466;13.436;2023-04-03T15:34:11;5.00;1.00
5150;DHT22;2593;52.466;13.436;2023-04-03T15:36:37;4.90;1.00
5150;DHT22;2593;52.466;13.436;2023-04-03T15:39:03;4.90;1.00
5150;DHT22;2593;52.466;13.436;2023-04-03T15:41:29;4.90;1.00
5150;DHT22;2593;52.466;13.436;2023-04-03T15:43:54;4.80;1.00
5150;DHT22;2593;52.466;13.436;2023-04-03T15:46:20;4.80;1.00
5150;DHT22;2593;52.466;13.436;2023-04-03T15:48:46;4.80;1.00
5150;DHT22;2593;52.466;13.436;2023-04-03T15:51:12;4.80;1.00
5150;DHT22;2593;52.466;13.436;2023-04-03T15:53:37;4.80;1.00
5150;DHT22;2593;52.466;13.436;2023-04-03T15:56:03;4.80;1.00
5150;DHT22;2593;52.466;13.436;2023-04-03T15:58:30;4.80;1.00
5150;DHT22;2593;52.466;13.436;2023-04-03T16:00:55;4.70;1.00
5150;DHT22;2593;52.466;13.436;2023-04-03T16:03:21;4.70;1.00
5150;DHT22;2593;52.466;13.436;2023-04-03T16:05:49;4.70;1.00
5150;DHT22;2593;52.466;13.436;2023-04-03T16:08:15;4.70;1.00
5150;DHT22;2593;52.466;13.436;2023-04-03T16:10:43;4.70;1.00
5150;DHT22;2593;52.466;13.436;2023-04-03T16:13:11;4.60;1.00
5150;DHT22;2593;52.466;13.436;2023-04-03T16:15:37;4.40;1.00
5150;DHT22;2593;52.466;13.436;2023-04-03T16:18:03;4.50;1.00
5150;DHT22;2593;52.466;13.436;2023-04-03T16:20:29;4.40;1.00
5150;DHT22;2593;52.466;13.436;2023-04-03T16:22:58;4.40;1.00
5150;DHT22;2593;52.466;13.436;2023-04-03T16:25:25;4.60;1.00
5150;DHT22;2593;52.466;13.436;2023-04-03T16:27:52;4.60;1.00
5150;DHT22;2593;52.466;13.436;2023-04-03T16:30:17;4.70;1.00
5150;DHT22;2593;52.466;13.436;2023-04-03T16:32:43;4.70;1.00
5150;DHT22;2593;52.466;13.436;2023-04-03T16:35:10;4.80;1.00
5150;DHT22;2593;52.466;13.436;2023-04-03T16:37:39;5.00;1.00
5150;DHT22;2593;52.466;13.436;2023-04-03T16:40:06;5.00;1.00
5150;DHT22;2593;52.466;13.436;2023-04-03T16:42:32;5.10;1.00
5150;DHT22;2593;52.466;13.436;2023-04-03T16:44:58;5.00;1.00
5150;DHT22;2593;52.466;13.436;2023-04-03T16:47:26;5.10;1.00
5150;DHT22;2593;52.466;13.436;2023-04-03T16:49:52;5.00;1.00
5150;DHT22;2593;52.466;13.436;2023-04-03T16:52:17;5.00;1.00
5150;DHT22;2593;52.466;13.436;2023-04-03T16:54:43;4.90;1.00
5150;DHT22;2593;52.466;13.436;2023-04-03T16:57:09;4.80;1.00
5150;DHT22;2593;52.466;13.436;2023-04-03T16:59:34;4.80;1.00
5150;DHT22;2593;52.466;13.436;2023-04-03T17:02:00;4.60;1.00
5150;DHT22;2593;52.466;13.436;2023-04-03T17:04:26;4.80;1.00
5150;DHT22;2593;52.466;13.436;2023-04-03T17:06:52;4.70;1.00
5150;DHT22;2593;52.466;13.436;2023-04-03T17:09:17;4.60;1.00
5150;DHT22;2593;52.466;13.436;2023-04-03T17:11:43;4.60;1.00
5150;DHT22;2593;52.466;13.436;2023-04-03T17:14:09;4.50;1.00
5150;DHT22;2593;52.466;13.436;2023-04-03T17:16:36;4.50;1.00
5150;DHT22;2593;52.466;13.436;2023-04-03T17:19:03;4.40;1.00
5150;DHT22;2593;52.466;13.436;2023-04-03T17:21:29;4.50;1.00
5150;DHT22;2593;52.466;13.436;2023-04-03T17:23:59;4.40;1.00
5150;DHT22;2593;52.466;13.436;2023-04-03T17:26:26;4.50;1.00
5150;DHT22;2593;52.466;13.436;2023-04-03T17:28:52;4.50;1.00
5150;DHT22;2593;52.466;13.436;2023-04-03T17:31:18;4.50;1.00
5150;DHT22;2593;52.466;13.436;2023-04-03T17:33:44;4.50;1.00
5150;DHT22;2593;52.466;13.436;2023-04-03T17:36:09;4.40;1.00
5150;DHT22;2593;52.466;13.436;2023-04-03T17:38:35;4.40;1.00
5150;DHT22;2593;52.466;13.436;2023-04-03T17:41:04;4.30;1.00
5150;DHT22;2593;52.466;13.436;2023-04-03T17:43:30;4.20;1.00
5150;DHT22;2593;52.466;13.436;2023-04-03T17:46:01;4.30;1.00
5150;DHT22;2593;52.466;13.436;2023-04-03T17:48:29;4.30;1.00
5150;DHT22;2593;52.466;13.436;2023-04-03T17:50:55;4.20;1.00
5150;DHT22;2593;52.466;13.436;2023-04-03T17:53:21;4.20;1.00
5150;DHT22;2593;52.466;13.436;2023-04-03T17:55:46;4.20;1.00
5150;DHT22;2593;52.466;13.436;2023-04-03T17:58:12;4.20;1.00